Time;durP1;ratioP1;P1;durP2;ratioP2;P2;SDS_P1;SDS_P2;PMS_P1;PMS_P2;Temp;Humidity;BMP_temperature;BMP_pressure;BME280_temperature;BME280_humidity;BME280_pressure;Samples;Min_cycle;Max_cycle;Signal;HPM_P1;HPM_P2
2021/06/05 11:51:20;;;;;;;1.40;0.60;;;18.00;99.90;;;;;;2123000;27;20483;-67
2021/06/05 11:52:29;;;;;;;0.90;0.80;;;17.80;99.90;;;;;;2121076;27;20443;-67
2021/06/05 11:53:38;;;;;;;0.60;0.60;;;17.80;99.90;;;;;;2117956;27;20828;-67
2021/06/05 11:54:39;;;;;;;1.30;0.70;;;17.90;99.90;;;;;;2103829;28;20450;-67
2021/06/05 11:55:41;;;;;;;0.70;0.70;;;17.90;99.90;;;;;;2100401;28;20455;-68
2021/06/05 11:56:51;;;;;;;1.73;0.80;;;17.80;99.90;;;;;;2120858;28;20409;-66
2021/06/05 11:57:51;;;;;;;1.23;0.70;;;17.90;99.90;;;;;;2114595;27;20436;-67
2021/06/05 11:58:53;;;;;;;0.50;0.50;;;18.10;99.90;;;;;;2112886;28;20906;-68
2021/06/05 11:59:58;;;;;;;0.60;0.60;;;18.10;99.90;;;;;;2118841;28;20636;-67
2021/06/05 12:01:16;;;;;;;0.40;0.40;;;18.00;99.90;;;;;;2120943;28;20424;-67
2021/06/05 12:02:28;;;;;;;0.50;0.50;;;17.80;99.90;;;;;;2111979;28;20424;-67
2021/06/05 12:03:53;;;;;;;0.50;0.50;;;17.80;99.90;;;;;;2115323;27;20498;-68
2021/06/05 12:05:16;;;;;;;0.60;0.60;;;17.80;99.90;;;;;;2120976;28;20419;-67
2021/06/05 12:06:26;;;;;;;1.60;0.70;;;17.70;99.90;;;;;;2113527;27;20416;-67
2021/06/05 12:07:32;;;;;;;0.60;0.60;;;17.70;99.90;;;;;;2115783;28;20820;-68
2021/06/05 12:08:33;;;;;;;0.60;0.60;;;17.80;99.90;;;;;;2114544;27;20527;-66
2021/06/05 12:09:41;;;;;;;0.83;0.83;;;17.90;99.90;;;;;;2112227;28;20438;-68
2021/06/05 12:10:42;;;;;;;0.97;0.67;;;17.90;99.90;;;;;;2113005;28;20214;-73
2021/06/05 12:11:49;;;;;;;0.77;0.77;;;17.90;99.90;;;;;;2117329;28;20514;-67
2021/06/05 12:12:50;;;;;;;0.70;0.70;;;17.90;99.90;;;;;;2112969;28;20208;-67
2021/06/05 12:14:12;;;;;;;1.67;1.27;;;18.00;99.90;;;;;;2114399;28;20887;-67
2021/06/05 12:15:22;;;;;;;1.43;0.80;;;18.20;99.90;;;;;;2113068;28;20178;-68
2021/06/05 12:16:24;;;;;;;1.20;1.00;;;18.10;99.90;;;;;;2106075;28;20495;-68
2021/06/05 12:17:32;;;;;;;1.00;1.00;;;18.00;99.90;;;;;;2109383;28;20409;-68
2021/06/05 12:18:33;;;;;;;1.30;0.70;;;18.00;99.90;;;;;;2111748;28;20412;-68
2021/06/05 12:19:36;;;;;;;1.50;0.83;;;18.10;99.90;;;;;;2107839;28;20425;-69
2021/06/05 12:20:47;;;;;;;0.83;0.80;;;18.00;99.90;;;;;;2120545;27;21110;-66
2021/06/05 12:21:48;;;;;;;0.90;0.90;;;18.10;99.90;;;;;;2114773;28;20436;-67
2021/06/05 12:22:54;;;;;;;1.23;1.10;;;18.10;99.90;;;;;;2111736;28;20460;-67
2021/06/05 12:23:56;;;;;;;0.90;0.73;;;18.20;99.90;;;;;;2119633;28;20182;-68
2021/06/05 12:24:57;;;;;;;0.73;0.73;;;18.20;99.90;;;;;;2121138;27;20497;-67
2021/06/05 12:26:10;;;;;;;1.57;0.70;;;18.40;99.90;;;;;;2113752;28;21155;-67
2021/06/05 12:27:24;;;;;;;0.67;0.60;;;18.60;99.90;;;;;;2113064;28;20503;-68
2021/06/05 12:28:31;;;;;;;1.40;1.10;;;18.90;99.90;;;;;;2121309;27;20925;-67
2021/06/05 12:29:38;;;;;;;0.70;0.70;;;19.10;99.90;;;;;;2117208;28;20918;-67
2021/06/05 12:30:43;;;;;;;0.87;0.70;;;19.40;99.90;;;;;;2111989;28;20517;-67
2021/06/05 12:31:44;;;;;;;0.60;0.60;;;19.70;99.90;;;;;;2117973;28;20518;-67
2021/06/05 12:33:01;;;;;;;0.70;0.70;;;19.90;99.90;;;;;;2120685;27;20864;-64
2021/06/05 12:34:10;;;;;;;1.10;1.00;;;20.30;99.90;;;;;;2113157;27;20435;-65
2021/06/05 12:35:42;;;;;;;0.90;0.80;;;20.60;99.70;;;;;;2111404;28;20408;-64
2021/06/05 12:36:46;;;;;;;1.00;0.90;;;20.90;98.60;;;;;;2101168;28;20432;-64
2021/06/05 12:37:57;;;;;;;1.07;0.93;;;21.20;97.20;;;;;;2111820;28;21004;-67
2021/06/05 12:39:27;;;;;;;1.67;0.90;;;20.90;96.40;;;;;;2110926;28;20519;-66
2021/06/05 12:40:45;;;;;;;1.00;0.90;;;20.60;94.90;;;;;;2108276;28;20481;-65
2021/06/05 12:41:50;;;;;;;1.07;1.00;;;20.50;98.70;;;;;;2115435;28;20422;-66
2021/06/05 12:42:51;;;;;;;1.10;1.00;;;20.20;99.50;;;;;;2120873;27;20474;-68
2021/06/05 12:43:53;;;;;;;0.97;0.90;;;19.90;99.90;;;;;;2113758;28;20417;-68
2021/06/05 12:45:09;;;;;;;1.03;0.93;;;19.60;99.90;;;;;;2111988;28;20932;-68
2021/06/05 12:46:21;;;;;;;2.40;1.50;;;19.60;99.90;;;;;;2103696;28;20425;-66
2021/06/05 12:47:30;;;;;;;2.77;1.70;;;19.70;99.90;;;;;;2101449;28;20800;-68
2021/06/05 12:48:30;;;;;;;1.37;0.80;;;19.60;99.90;;;;;;2113059;28;20415;-65
2021/06/05 12:49:32;;;;;;;0.70;0.70;;;19.60;99.90;;;;;;2116775;28;20509;-67
2021/06/05 12:50:41;;;;;;;0.70;0.70;;;19.40;99.90;;;;;;2103578;28;20183;-67
2021/06/05 12:52:05;;;;;;;0.60;0.60;;;19.20;99.90;;;;;;2117073;28;20434;-67
2021/06/05 12:53:07;;;;;;;1.57;0.70;;;19.30;99.90;;;;;;2120155;28;20447;-68
2021/06/05 12:54:11;;;;;;;0.70;0.70;;;19.30;99.90;;;;;;2103175;28;20453;-68
2021/06/05 12:55:17;;;;;;;0.60;0.60;;;19.20;99.90;;;;;;2104701;28;20912;-67
2021/06/05 12:56:40;;;;;;;0.60;0.60;;;19.20;99.90;;;;;;2119903;28;20403;-64
2021/06/05 12:57:51;;;;;;;0.60;0.60;;;19.40;99.90;;;;;;2115533;27;20906;-65
2021/06/05 12:59:00;;;;;;;0.87;0.80;;;19.70;99.90;;;;;;2112297;28;20810;-67
2021/06/05 13:00:35;;;;;;;1.80;0.97;;;20.20;99.90;;;;;;2119163;28;20483;-68
2021/06/05 13:01:55;;;;;;;1.97;1.30;;;20.60;98.10;;;;;;2116196;28;20507;-68
2021/06/05 13:03:08;;;;;;;0.80;0.80;;;21.20;96.10;;;;;;2105895;28;20433;-70
2021/06/05 13:04:32;;;;;;;0.80;0.80;;;21.90;88.80;;;;;;2098123;28;20982;-68
2021/06/05 13:05:40;;;;;;;1.10;0.70;;;22.70;79.00;;;;;;2105013;28;20420;-68
2021/06/05 13:07:00;;;;;;;1.00;0.80;;;23.30;78.00;;;;;;2114322;28;20420;-70
2021/06/05 13:08:34;;;;;;;0.70;0.70;;;23.60;67.80;;;;;;2106422;28;21010;-70
2021/06/05 13:09:37;;;;;;;1.40;0.73;;;23.60;67.00;;;;;;2106162;28;20507;-70
2021/06/05 13:10:59;;;;;;;1.53;1.10;;;23.70;66.40;;;;;;2114133;28;20906;-71
2021/06/05 13:12:05;;;;;;;0.87;0.80;;;23.80;66.70;;;;;;2106672;28;20428;-67
2021/06/05 13:13:14;;;;;;;0.80;0.80;;;23.80;63.80;;;;;;2105255;28;20483;-66
2021/06/05 13:14:24;;;;;;;0.90;0.80;;;23.70;65.30;;;;;;2114704;28;20491;-67
2021/06/05 13:15:35;;;;;;;1.10;0.90;;;23.70;68.00;;;;;;2112103;28;20489;-68
2021/06/05 13:16:36;;;;;;;2.03;0.83;;;24.00;65.00;;;;;;2106326;28;20423;-68
2021/06/05 13:17:43;;;;;;;1.17;1.07;;;23.90;62.60;;;;;;2110775;28;21190;-69
2021/06/05 13:18:47;;;;;;;3.00;1.10;;;24.00;61.40;;;;;;2114160;28;20793;-68
2021/06/05 13:19:48;;;;;;;1.30;1.20;;;24.10;62.20;;;;;;2108361;28;20428;-66
2021/06/05 13:20:54;;;;;;;1.63;0.80;;;24.30;61.80;;;;;;2106236;28;21026;-67
2021/06/05 13:22:22;;;;;;;1.23;1.07;;;24.20;61.60;;;;;;2112682;28;20436;-66
2021/06/05 13:23:29;;;;;;;0.80;0.80;;;24.10;62.80;;;;;;2111861;28;20412;-67
2021/06/05 13:24:31;;;;;;;1.97;0.60;;;23.90;61.40;;;;;;2106445;28;20497;-67
2021/06/05 13:25:31;;;;;;;0.70;0.70;;;23.80;60.20;;;;;;2109066;28;20431;-67
2021/06/05 13:26:44;;;;;;;0.70;0.70;;;23.70;60.00;;;;;;2114228;28;20462;-66
2021/06/05 13:28:00;;;;;;;1.40;1.10;;;23.50;62.80;;;;;;2109337;28;20187;-66
2021/06/05 13:29:35;;;;;;;1.80;1.40;;;23.40;63.60;;;;;;2106363;28;20417;-66
2021/06/05 13:30:50;;;;;;;1.93;1.33;;;23.20;63.90;;;;;;2098006;28;20428;-66
2021/06/05 13:31:55;;;;;;;1.20;1.10;;;22.90;66.10;;;;;;2111854;28;20428;-66
2021/06/05 13:32:56;;;;;;;1.10;1.00;;;22.40;70.60;;;;;;2114095;28;20782;-67
2021/06/05 13:34:18;;;;;;;1.03;0.90;;;22.20;72.00;;;;;;2106611;28;20517;-67
2021/06/05 13:35:33;;;;;;;0.93;0.70;;;22.00;75.00;;;;;;2107632;28;20579;-66
2021/06/05 13:36:34;;;;;;;2.17;1.10;;;21.90;78.70;;;;;;2114165;28;20859;-66
2021/06/05 13:37:50;;;;;;;1.10;0.70;;;22.00;79.60;;;;;;2109889;28;20425;-66
2021/06/05 13:38:57;;;;;;;0.97;0.90;;;22.10;78.90;;;;;;2105711;28;20185;-66
2021/06/05 13:40:11;;;;;;;1.23;0.87;;;21.90;79.60;;;;;;2112764;28;20511;-66
2021/06/05 13:41:12;;;;;;;1.37;1.00;;;21.70;85.90;;;;;;2113295;28;20504;-66
2021/06/05 13:42:13;;;;;;;1.13;1.03;;;21.80;90.60;;;;;;2105616;28;20408;-68
2021/06/05 13:43:14;;;;;;;1.73;0.80;;;22.20;85.60;;;;;;2107163;28;20250;-66
2021/06/05 13:44:16;;;;;;;1.80;0.67;;;22.60;82.50;;;;;;2114537;28;20416;-67
2021/06/05 13:45:23;;;;;;;1.70;0.90;;;23.00;73.20;;;;;;2112559;28;20212;-66
2021/06/05 13:46:24;;;;;;;1.03;0.80;;;23.40;69.70;;;;;;2098350;28;20421;-67
2021/06/05 13:47:25;;;;;;;0.70;0.70;;;23.40;65.50;;;;;;2108349;28;20420;-67
2021/06/05 13:48:26;;;;;;;0.73;0.70;;;23.40;66.50;;;;;;2114507;28;20174;-66
2021/06/05 13:49:26;;;;;;;3.03;0.90;;;23.20;65.50;;;;;;2111790;28;20448;-66
2021/06/05 13:50:31;;;;;;;0.80;0.73;;;23.20;67.30;;;;;;2105996;28;20622;-67
2021/06/05 13:51:34;;;;;;;1.57;0.90;;;22.60;67.90;;;;;;2109879;28;20179;-67
2021/06/05 13:52:36;;;;;;;1.00;0.80;;;22.60;72.40;;;;;;2113581;28;20439;-67
2021/06/05 13:53:38;;;;;;;1.20;1.10;;;22.90;70.40;;;;;;2109938;28;20417;-66
2021/06/05 13:54:40;;;;;;;1.10;1.00;;;23.20;70.90;;;;;;2105403;28;20824;-66
2021/06/05 13:55:51;;;;;;;1.23;0.90;;;23.60;68.90;;;;;;2110480;28;20416;-65
2021/06/05 13:56:52;;;;;;;0.97;0.90;;;23.70;64.80;;;;;;2107382;28;20977;-66
2021/06/05 13:57:54;;;;;;;2.47;0.73;;;23.60;64.20;;;;;;2097384;28;20505;-64
2021/06/05 13:58:55;;;;;;;0.70;0.70;;;23.00;67.60;;;;;;2097554;28;20175;-65
2021/06/05 13:59:56;;;;;;;0.80;0.80;;;22.60;69.90;;;;;;2111473;28;20438;-65
2021/06/05 14:00:57;;;;;;;1.70;1.00;;;22.40;69.30;;;;;;2114310;28;20193;-65
2021/06/05 14:01:58;;;;;;;3.37;1.10;;;22.60;72.00;;;;;;2107176;28;20425;-66
2021/06/05 14:02:59;;;;;;;5.63;1.10;;;23.10;70.50;;;;;;2105660;28;20447;-66
2021/06/05 14:04:02;;;;;;;2.40;1.03;;;23.30;65.90;;;;;;2113632;28;20178;-67
2021/06/05 14:05:04;;;;;;;0.80;0.80;;;23.30;67.20;;;;;;2114376;28;20178;-67
2021/06/05 14:06:06;;;;;;;0.80;0.80;;;23.40;67.00;;;;;;2105465;28;20545;-67
2021/06/05 14:07:06;;;;;;;2.20;1.03;;;23.40;67.70;;;;;;2104503;28;20409;-65
2021/06/05 14:08:08;;;;;;;2.50;0.87;;;23.50;70.70;;;;;;2105173;28;20425;-65
2021/06/05 14:09:11;;;;;;;0.80;0.80;;;23.70;65.50;;;;;;2105896;28;20178;-65
2021/06/05 14:10:12;;;;;;;0.97;0.87;;;23.50;66.60;;;;;;2106097;28;20513;-66
2021/06/05 14:11:17;;;;;;;1.00;0.60;;;23.00;73.00;;;;;;2106189;28;20471;-66
2021/06/05 14:12:30;;;;;;;1.20;0.70;;;22.40;72.10;;;;;;2113726;28;20415;-66
2021/06/05 14:13:30;;;;;;;1.23;0.70;;;22.40;72.60;;;;;;2110093;28;20410;-66
2021/06/05 14:14:31;;;;;;;1.03;0.90;;;22.50;76.70;;;;;;2104628;28;20904;-66
2021/06/05 14:15:41;;;;;;;0.60;0.60;;;22.60;75.40;;;;;;2109489;28;20581;-66
2021/06/05 14:16:43;;;;;;;0.80;0.80;;;22.70;76.10;;;;;;2114435;28;20175;-66
2021/06/05 14:17:44;;;;;;;1.07;0.70;;;22.70;74.70;;;;;;2108394;28;20432;-64
2021/06/05 14:18:45;;;;;;;2.57;1.00;;;22.50;74.10;;;;;;2105530;28;20500;-65
2021/06/05 14:19:46;;;;;;;2.13;1.03;;;22.30;73.30;;;;;;2111499;28;20929;-65
2021/06/05 14:20:50;;;;;;;1.03;0.90;;;22.10;80.10;;;;;;2114365;28;20178;-65
2021/06/05 14:21:50;;;;;;;1.67;1.10;;;22.10;79.60;;;;;;2107977;28;20789;-65
2021/06/05 14:22:52;;;;;;;1.40;1.10;;;22.00;83.80;;;;;;2105627;28;20445;-66
2021/06/05 14:23:53;;;;;;;0.70;0.70;;;21.90;85.30;;;;;;2112278;28;20186;-66
2021/06/05 14:24:54;;;;;;;1.60;0.60;;;21.90;79.90;;;;;;2114412;28;20481;-67
2021/06/05 14:25:56;;;;;;;1.10;0.70;;;21.50;86.60;;;;;;2107263;28;20279;-67
2021/06/05 14:26:58;;;;;;;1.20;0.90;;;21.20;88.10;;;;;;2105916;28;20179;-65
2021/06/05 14:28:00;;;;;;;1.17;0.70;;;20.80;91.30;;;;;;2113109;28;20424;-67
2021/06/05 14:29:01;;;;;;;0.60;0.60;;;20.70;91.60;;;;;;2113635;28;20968;-66
2021/06/05 14:30:09;;;;;;;1.00;0.90;;;20.40;94.10;;;;;;2105723;28;20417;-66
2021/06/05 14:31:11;;;;;;;1.00;0.90;;;20.30;95.00;;;;;;2106309;28;20580;-65
2021/06/05 14:32:12;;;;;;;1.47;0.80;;;20.30;95.50;;;;;;2113957;28;20415;-66
2021/06/05 14:33:15;;;;;;;0.97;0.70;;;20.50;94.40;;;;;;2113135;28;20428;-67
2021/06/05 14:34:16;;;;;;;0.70;0.70;;;20.60;94.40;;;;;;2105083;28;20163;-67
2021/06/05 14:35:17;;;;;;;0.80;0.80;;;20.50;94.50;;;;;;2106577;28;20499;-66
2021/06/05 14:36:18;;;;;;;1.00;0.83;;;20.50;95.80;;;;;;2113560;28;20174;-64
2021/06/05 14:37:18;;;;;;;0.70;0.70;;;20.50;95.80;;;;;;2111797;28;20400;-66
2021/06/05 14:38:21;;;;;;;0.80;0.70;;;20.50;95.30;;;;;;2105743;28;20186;-65
2021/06/05 14:39:22;;;;;;;0.90;0.80;;;20.50;94.30;;;;;;2108027;28;20182;-64
2021/06/05 14:40:24;;;;;;;0.83;0.80;;;20.40;95.80;;;;;;2114149;28;20492;-64
2021/06/05 14:41:26;;;;;;;2.20;1.00;;;20.50;95.60;;;;;;2111468;28;20517;-64
2021/06/05 14:42:28;;;;;;;0.70;0.70;;;20.70;94.90;;;;;;2105449;28;20401;-66
2021/06/05 14:43:30;;;;;;;0.77;0.60;;;20.80;94.40;;;;;;2108943;28;21030;-65
2021/06/05 14:44:31;;;;;;;1.00;0.60;;;20.50;95.30;;;;;;2114101;28;20457;-66
2021/06/05 14:45:38;;;;;;;0.60;0.60;;;20.30;95.40;;;;;;2109880;28;20443;-67
2021/06/05 14:46:39;;;;;;;0.50;0.50;;;20.10;96.30;;;;;;2105059;28;20425;-68
2021/06/05 14:47:40;;;;;;;0.73;0.73;;;19.80;97.80;;;;;;2110368;28;20448;-67
2021/06/05 14:48:42;;;;;;;1.90;1.63;;;19.90;97.50;;;;;;2113390;28;20178;-67
2021/06/05 14:49:43;;;;;;;1.33;0.80;;;20.10;97.10;;;;;;2100046;28;20497;-67
2021/06/05 14:50:46;;;;;;;0.70;0.70;;;20.10;96.80;;;;;;2096433;28;20532;-67
2021/06/05 14:51:46;;;;;;;0.57;0.57;;;19.80;98.50;;;;;;2108562;28;20435;-67
2021/06/05 14:52:48;;;;;;;0.80;0.70;;;19.90;98.50;;;;;;2113552;28;20806;-67
2021/06/05 14:53:49;;;;;;;1.10;0.70;;;19.80;98.10;;;;;;2107967;28;20320;-68
2021/06/05 14:54:51;;;;;;;0.70;0.70;;;19.80;98.60;;;;;;2105487;28;20517;-67
2021/06/05 14:55:52;;;;;;;0.73;0.73;;;19.80;99.20;;;;;;2111501;28;20178;-67
2021/06/05 14:56:53;;;;;;;1.13;0.90;;;19.80;98.70;;;;;;2104876;28;20768;-67
2021/06/05 14:57:54;;;;;;;0.77;0.70;;;19.80;99.00;;;;;;2106579;28;20486;-67
2021/06/05 14:58:55;;;;;;;2.00;0.60;;;19.70;99.20;;;;;;2104763;28;20179;-69
2021/06/05 14:59:56;;;;;;;0.60;0.60;;;19.60;99.20;;;;;;2111988;28;20261;-69
2021/06/05 15:00:57;;;;;;;0.73;0.70;;;19.50;99.90;;;;;;2113979;27;20193;-67
2021/06/05 15:01:58;;;;;;;0.70;0.70;;;19.20;99.90;;;;;;2106619;28;20432;-68
2021/06/05 15:02:58;;;;;;;0.50;0.50;;;19.10;99.90;;;;;;2105211;28;20187;-67
2021/06/05 15:03:59;;;;;;;0.60;0.60;;;19.00;99.90;;;;;;2113018;28;20273;-68
2021/06/05 15:05:00;;;;;;;1.53;0.87;;;18.80;99.90;;;;;;2113137;28;20189;-68
2021/06/05 15:06:02;;;;;;;0.70;0.70;;;18.50;99.90;;;;;;2105675;28;20425;-69
2021/06/05 15:07:02;;;;;;;1.33;0.70;;;18.20;99.90;;;;;;2105545;28;20187;-67
2021/06/05 15:08:05;;;;;;;1.30;0.60;;;18.00;99.90;;;;;;2121393;27;20515;-68
2021/06/05 15:09:08;;;;;;;0.67;0.67;;;17.90;99.90;;;;;;2121649;27;20216;-69
2021/06/05 15:10:10;;;;;;;1.30;0.80;;;17.80;99.90;;;;;;2096596;28;20436;-68
2021/06/05 15:11:11;;;;;;;0.80;0.80;;;17.80;99.90;;;;;;2097699;28;20573;-69
2021/06/05 15:12:11;;;;;;;0.70;0.70;;;17.90;99.90;;;;;;2113174;28;20753;-66
2021/06/05 15:13:12;;;;;;;0.80;0.67;;;18.10;99.90;;;;;;2112281;28;20173;-68
2021/06/05 15:14:13;;;;;;;0.73;0.73;;;18.20;99.90;;;;;;2104963;28;20676;-71
2021/06/05 15:15:16;;;;;;;0.70;0.70;;;18.40;99.90;;;;;;2105816;28;20190;-69
2021/06/05 15:16:17;;;;;;;2.43;0.80;;;18.50;99.90;;;;;;2113394;28;20252;-67
2021/06/05 15:17:18;;;;;;;0.70;0.70;;;18.50;99.90;;;;;;2103070;28;20405;-68
2021/06/05 15:18:19;;;;;;;0.77;0.77;;;18.40;99.90;;;;;;2096639;28;20867;-68
2021/06/05 15:19:19;;;;;;;0.80;0.80;;;18.30;99.90;;;;;;2100759;28;20172;-68
2021/06/05 15:20:23;;;;;;;0.80;0.80;;;18.40;99.90;;;;;;2113985;28;20174;-68
2021/06/05 15:21:24;;;;;;;1.53;1.10;;;18.30;99.90;;;;;;2111220;28;20185;-71
2021/06/05 15:22:25;;;;;;;1.10;0.90;;;18.30;99.90;;;;;;2104570;28;20433;-69
2021/06/05 15:23:25;;;;;;;3.10;1.10;;;18.40;99.90;;;;;;2107507;28;20462;-68
2021/06/05 15:24:26;;;;;;;1.73;1.00;;;18.40;99.90;;;;;;2111196;28;20173;-70
2021/06/05 15:25:32;;;;;;;4.43;1.33;;;18.40;99.90;;;;;;2104511;28;20182;-69
2021/06/05 15:26:32;;;;;;;1.93;1.10;;;18.40;99.90;;;;;;2104839;28;20429;-69
2021/06/05 15:27:33;;;;;;;1.47;0.93;;;18.40;99.90;;;;;;2109138;28;20430;-67
2021/06/05 15:28:34;;;;;;;3.57;1.80;;;18.30;99.90;;;;;;2113852;28;20257;-68
2021/06/05 15:29:35;;;;;;;4.03;1.93;;;18.30;99.90;;;;;;2109709;28;20191;-67
2021/06/05 15:30:40;;;;;;;1.23;1.10;;;18.30;99.90;;;;;;2105366;28;20475;-68
2021/06/05 15:31:40;;;;;;;1.13;0.87;;;18.30;99.90;;;;;;2110170;28;20428;-67
2021/06/05 15:32:41;;;;;;;1.63;0.80;;;18.20;99.90;;;;;;2113430;28;20515;-68
2021/06/05 15:33:42;;;;;;;1.03;0.90;;;18.20;99.90;;;;;;2108674;28;20273;-68
2021/06/05 15:34:43;;;;;;;1.07;0.97;;;18.20;99.90;;;;;;2105309;28;20170;-67
2021/06/05 15:35:45;;;;;;;0.70;0.70;;;18.10;99.90;;;;;;2110674;28;20432;-71
2021/06/05 15:36:46;;;;;;;0.70;0.70;;;18.10;99.90;;;;;;2113695;28;20205;-70
2021/06/05 15:37:46;;;;;;;0.70;0.70;;;18.20;99.90;;;;;;2108090;28;20431;-67
2021/06/05 15:38:49;;;;;;;0.70;0.70;;;18.00;99.90;;;;;;2105196;28;20672;-67
2021/06/05 15:39:50;;;;;;;2.70;0.90;;;18.00;99.90;;;;;;2111280;28;20186;-68
2021/06/05 15:40:50;;;;;;;1.20;1.10;;;18.00;99.90;;;;;;2113327;28;20416;-67
2021/06/05 15:41:51;;;;;;;0.80;0.80;;;17.80;99.90;;;;;;2107327;28;20189;-67
2021/06/05 15:42:53;;;;;;;1.37;1.20;;;17.60;99.90;;;;;;2104302;28;20244;-66
2021/06/05 15:43:53;;;;;;;1.27;1.00;;;17.50;99.90;;;;;;2111453;28;20203;-67
2021/06/05 15:44:56;;;;;;;0.87;0.87;;;17.50;99.90;;;;;;2112935;28;21205;-67
2021/06/05 15:45:57;;;;;;;0.70;0.70;;;17.50;99.90;;;;;;2105998;28;20214;-68
2021/06/05 15:46:59;;;;;;;0.87;0.80;;;17.50;99.90;;;;;;2104603;28;20432;-68
2021/06/05 15:48:00;;;;;;;0.87;0.80;;;17.50;99.90;;;;;;2112312;28;20467;-68
2021/06/05 15:49:01;;;;;;;0.70;0.70;;;17.60;99.90;;;;;;2113524;28;20458;-68
2021/06/05 15:50:05;;;;;;;0.70;0.70;;;17.70;99.90;;;;;;2105807;28;20633;-68
2021/06/05 15:51:17;;;;;;;0.60;0.60;;;17.80;99.90;;;;;;2104232;28;20571;-67
2021/06/05 15:52:19;;;;;;;2.67;0.70;;;17.80;99.90;;;;;;2113036;28;20404;-67
2021/06/05 15:53:23;;;;;;;1.53;0.80;;;17.80;99.90;;;;;;2111577;28;20400;-67
2021/06/05 15:54:25;;;;;;;0.93;0.73;;;18.00;99.90;;;;;;2105370;28;20409;-67
2021/06/05 15:55:26;;;;;;;1.50;0.90;;;18.10;99.90;;;;;;2107363;28;20952;-67
2021/06/05 15:56:31;;;;;;;1.70;0.90;;;18.30;99.90;;;;;;2113127;28;20404;-66
2021/06/05 15:57:32;;;;;;;1.30;1.20;;;18.50;99.90;;;;;;2109874;28;20417;-66
2021/06/05 15:58:34;;;;;;;0.97;0.90;;;18.70;99.90;;;;;;2105307;28;20454;-67
2021/06/05 15:59:35;;;;;;;2.63;1.80;;;18.70;99.90;;;;;;2109111;28;20200;-68
2021/06/05 16:00:35;;;;;;;2.23;0.80;;;18.90;99.90;;;;;;2113648;28;20509;-67
2021/06/05 16:01:39;;;;;;;1.50;0.70;;;19.00;99.90;;;;;;2111266;28;20185;-68
2021/06/05 16:02:40;;;;;;;1.13;0.80;;;19.00;99.90;;;;;;2104419;28;20278;-66
2021/06/05 16:03:42;;;;;;;1.17;0.60;;;19.00;99.90;;;;;;2109410;28;20983;-67
2021/06/05 16:04:42;;;;;;;1.10;1.00;;;18.90;99.90;;;;;;2104813;28;20994;-67
2021/06/05 16:05:44;;;;;;;1.77;1.40;;;18.80;99.90;;;;;;2107685;28;20429;-66
2021/06/05 16:06:47;;;;;;;1.43;1.33;;;18.90;99.90;;;;;;2104645;28;20519;-67
2021/06/05 16:07:50;;;;;;;2.90;1.40;;;19.00;99.90;;;;;;2102099;28;20436;-67
2021/06/05 16:08:53;;;;;;;2.97;1.10;;;19.10;99.90;;;;;;2104946;28;20455;-67
2021/06/05 16:09:54;;;;;;;1.60;0.90;;;19.10;99.90;;;;;;2106101;28;20929;-67
2021/06/05 16:10:55;;;;;;;1.20;1.10;;;19.10;99.90;;;;;;2105097;28;20469;-68
2021/06/05 16:11:56;;;;;;;1.03;0.90;;;18.90;99.90;;;;;;2111295;28;20255;-68
2021/06/05 16:12:57;;;;;;;0.80;0.80;;;18.90;99.90;;;;;;2112665;28;20889;-67
2021/06/05 16:13:57;;;;;;;2.03;1.20;;;18.70;99.90;;;;;;2106090;28;20286;-67
2021/06/05 16:14:59;;;;;;;1.10;1.00;;;18.70;99.90;;;;;;2105286;28;20207;-67
2021/06/05 16:16:04;;;;;;;1.27;1.10;;;18.60;99.90;;;;;;2112420;28;20188;-67
2021/06/05 16:17:05;;;;;;;1.30;1.20;;;18.50;99.90;;;;;;2113550;28;20435;-67
2021/06/05 16:18:10;;;;;;;1.17;0.90;;;18.50;99.90;;;;;;2104077;28;20421;-67
2021/06/05 16:19:11;;;;;;;0.60;0.60;;;18.50;99.90;;;;;;2105179;28;20251;-68
2021/06/05 16:20:14;;;;;;;0.80;0.80;;;18.40;99.90;;;;;;2104315;28;20434;-67
2021/06/05 16:21:32;;;;;;;0.80;0.80;;;18.30;99.90;;;;;;2105817;28;20175;-67
2021/06/05 16:22:33;;;;;;;0.93;0.80;;;18.20;99.90;;;;;;2113131;28;20427;-67
2021/06/05 16:23:37;;;;;;;1.10;1.00;;;18.30;99.90;;;;;;2108863;28;20436;-67
2021/06/05 16:24:37;;;;;;;1.07;1.00;;;18.10;99.90;;;;;;2104315;28;20463;-67
2021/06/05 16:25:38;;;;;;;1.47;0.93;;;18.00;99.90;;;;;;2109483;28;20431;-67
2021/06/05 16:26:39;;;;;;;5.67;1.10;;;17.90;99.90;;;;;;2113263;28;20227;-67
2021/06/05 16:27:41;;;;;;;3.80;1.43;;;17.90;99.90;;;;;;2107996;28;20464;-67
2021/06/05 16:28:43;;;;;;;1.20;1.10;;;17.90;99.90;;;;;;2104400;28;20437;-68
2021/06/05 16:29:43;;;;;;;0.80;0.70;;;18.00;99.90;;;;;;2107500;28;20438;-67
2021/06/05 16:30:44;;;;;;;2.67;0.73;;;18.00;99.90;;;;;;2104923;28;20962;-66
2021/06/05 16:31:45;;;;;;;1.00;0.97;;;17.90;99.90;;;;;;2112797;28;20668;-65
2021/06/05 16:32:46;;;;;;;1.63;0.70;;;17.90;99.90;;;;;;2112521;28;20432;-65
2021/06/05 16:33:48;;;;;;;1.53;0.97;;;17.90;99.90;;;;;;2110827;28;20186;-67
2021/06/05 16:34:49;;;;;;;1.70;1.60;;;17.90;99.90;;;;;;2113496;28;20596;-65
2021/06/05 16:35:55;;;;;;;1.57;0.90;;;17.90;99.90;;;;;;2107476;28;20436;-65
2021/06/05 16:36:55;;;;;;;0.97;0.97;;;17.80;99.90;;;;;;2105035;28;20266;-64
2021/06/05 16:37:56;;;;;;;1.67;1.57;;;17.80;99.90;;;;;;2106038;28;20429;-69
2021/06/05 16:38:58;;;;;;;1.80;1.70;;;17.80;99.90;;;;;;2098324;28;20274;-68
2021/06/05 16:39:59;;;;;;;1.30;1.20;;;17.70;99.90;;;;;;2097341;28;20186;-67
2021/06/05 16:41:01;;;;;;;2.53;1.40;;;17.70;99.90;;;;;;2105924;28;20464;-66
2021/06/05 16:42:03;;;;;;;2.00;0.90;;;17.70;99.90;;;;;;2100161;28;20191;-67
2021/06/05 16:43:07;;;;;;;1.00;0.70;;;17.70;99.90;;;;;;2097325;28;20517;-66
2021/06/05 16:44:08;;;;;;;0.90;0.90;;;17.60;99.90;;;;;;2098389;28;20460;-66
2021/06/05 16:45:15;;;;;;;2.67;0.93;;;17.50;99.90;;;;;;2098896;28;20430;-67
2021/06/05 16:46:19;;;;;;;1.17;1.07;;;17.40;99.90;;;;;;2114608;28;20564;-68
2021/06/05 16:47:20;;;;;;;1.17;1.00;;;17.40;99.90;;;;;;2112458;28;20412;-68
2021/06/05 16:48:23;;;;;;;0.70;0.70;;;17.40;99.90;;;;;;2105322;28;20412;-65
2021/06/05 16:49:23;;;;;;;1.00;0.90;;;17.20;99.90;;;;;;2108972;28;21057;-67
2021/06/05 16:50:35;;;;;;;1.40;1.07;;;17.20;99.90;;;;;;2115476;28;20449;-67
2021/06/05 16:51:36;;;;;;;1.10;1.00;;;17.10;99.90;;;;;;2110698;28;20218;-68
2021/06/05 16:52:37;;;;;;;1.17;1.00;;;17.20;99.90;;;;;;2105765;28;20425;-66
2021/06/05 16:53:38;;;;;;;1.40;1.20;;;17.30;99.90;;;;;;2106757;28;20277;-68
2021/06/05 16:54:40;;;;;;;1.00;0.90;;;17.20;99.90;;;;;;2106644;28;20608;-67
2021/06/05 16:55:42;;;;;;;1.57;1.10;;;17.30;99.90;;;;;;2111411;28;20408;-68
2021/06/05 16:56:43;;;;;;;0.90;0.90;;;17.20;99.90;;;;;;2115191;28;20420;-69
2021/06/05 16:57:43;;;;;;;1.00;0.70;;;17.20;99.90;;;;;;2108994;28;20428;-68
2021/06/05 16:58:47;;;;;;;1.10;1.00;;;17.30;99.90;;;;;;2106169;28;20692;-68
2021/06/05 16:59:48;;;;;;;2.60;1.50;;;17.20;99.90;;;;;;2112314;28;20558;-67
2021/06/05 17:00:51;;;;;;;1.83;1.10;;;17.10;99.90;;;;;;2111404;28;20425;-68
2021/06/05 17:01:51;;;;;;;0.93;0.80;;;17.20;99.90;;;;;;2112307;28;20513;-67
2021/06/05 17:02:54;;;;;;;1.03;0.93;;;17.20;99.90;;;;;;2114273;28;20934;-68
2021/06/05 17:03:56;;;;;;;1.20;0.90;;;17.20;99.90;;;;;;2108026;28;20183;-67
2021/06/05 17:04:56;;;;;;;1.00;0.90;;;17.20;99.90;;;;;;2105985;28;20424;-68
2021/06/05 17:05:57;;;;;;;0.90;0.90;;;17.20;99.90;;;;;;2112922;28;20466;-69
2021/06/05 17:06:58;;;;;;;1.20;1.10;;;17.20;99.90;;;;;;2114715;28;20556;-66
2021/06/05 17:07:58;;;;;;;2.50;1.37;;;17.30;99.90;;;;;;2107004;28;20260;-67
2021/06/05 17:09:00;;;;;;;1.50;1.20;;;17.40;99.90;;;;;;2106033;28;20784;-68
2021/06/05 17:10:00;;;;;;;1.43;1.30;;;17.40;99.90;;;;;;2113372;28;20186;-67
2021/06/05 17:11:03;;;;;;;2.13;1.33;;;17.50;99.90;;;;;;2114986;28;20555;-68
2021/06/05 17:12:05;;;;;;;1.73;1.23;;;17.50;99.90;;;;;;2106572;28;20175;-68
2021/06/05 17:13:07;;;;;;;1.23;1.13;;;17.60;99.90;;;;;;2106298;28;20445;-68
2021/06/05 17:14:08;;;;;;;0.97;0.97;;;17.60;99.90;;;;;;2097901;28;20418;-68
2021/06/05 17:15:16;;;;;;;0.80;0.80;;;17.50;99.90;;;;;;2098788;28;20804;-67
2021/06/05 17:16:16;;;;;;;1.47;1.20;;;17.60;99.90;;;;;;2114201;28;20170;-67
2021/06/05 17:17:17;;;;;;;0.93;0.93;;;17.60;99.90;;;;;;2112602;28;20400;-67
2021/06/05 17:18:24;;;;;;;1.57;1.10;;;17.60;99.90;;;;;;2106162;28;20229;-67
2021/06/05 17:19:25;;;;;;;2.10;0.90;;;17.60;99.90;;;;;;2108427;28;20171;-68
2021/06/05 17:20:28;;;;;;;1.10;1.00;;;17.40;99.90;;;;;;2114041;28;20404;-67
2021/06/05 17:21:29;;;;;;;0.80;0.80;;;17.50;99.90;;;;;;2110987;28;20171;-68
2021/06/05 17:22:30;;;;;;;1.63;1.10;;;17.50;99.90;;;;;;2105344;28;20417;-67
2021/06/05 17:23:34;;;;;;;1.60;1.50;;;17.60;99.90;;;;;;2109711;28;20784;-67
2021/06/05 17:24:35;;;;;;;3.73;2.30;;;17.60;99.90;;;;;;2108740;28;20218;-67
2021/06/05 17:25:40;;;;;;;3.03;2.20;;;17.50;99.90;;;;;;2114674;27;20932;-67
2021/06/05 17:26:40;;;;;;;5.50;4.17;;;17.50;99.90;;;;;;2113991;28;20189;-67